sensor_id;sensor_type;location;lat;lon;timestamp;P1;durP1;ratioP1;P2;durP2;ratioP2
17386;SDS011;8811;52.398;9.728;2022-11-24T17:42:47;12.32;;;9.45;;
17386;SDS011;8811;52.398;9.728;2022-11-24T17:45:17;9.77;;;8.27;;
17386;SDS011;8811;52.398;9.728;2022-11-24T17:47:44;10.23;;;8.77;;
17386;SDS011;8811;52.398;9.728;2022-11-24T17:50:12;14.77;;;9.10;;
17386;SDS011;8811;52.398;9.728;2022-11-24T17:52:39;13.13;;;9.02;;
17386;SDS011;8811;52.398;9.728;2022-11-24T17:55:07;13.23;;;10.43;;
17386;SDS011;8811;52.398;9.728;2022-11-24T17:57:35;10.23;;;8.65;;
17386;SDS011;8811;52.398;9.728;2022-11-24T18:00:03;12.32;;;8.70;;
17386;SDS011;8811;52.398;9.728;2022-11-24T18:02:32;12.98;;;9.10;;
17386;SDS011;8811;52.398;9.728;2022-11-24T18:04:59;9.32;;;8.25;;
17386;SDS011;8811;52.398;9.728;2022-11-24T18:07:27;11.65;;;8.95;;
17386;SDS011;8811;52.398;9.728;2022-11-24T18:09:54;15.60;;;11.88;;
17386;SDS011;8811;52.398;9.728;2022-11-24T18:12:21;14.13;;;9.95;;
17386;SDS011;8811;52.398;9.728;2022-11-24T18:14:49;14.10;;;9.23;;
17386;SDS011;8811;52.398;9.728;2022-11-24T18:17:16;15.13;;;9.57;;
17386;SDS011;8811;52.398;9.728;2022-11-24T18:19:45;12.82;;;9.15;;
17386;SDS011;8811;52.398;9.728;2022-11-24T18:22:12;12.23;;;9.82;;
17386;SDS011;8811;52.398;9.728;2022-11-24T18:24:39;16.17;;;9.75;;
17386;SDS011;8811;52.398;9.728;2022-11-24T18:27:07;12.85;;;9.18;;
17386;SDS011;8811;52.398;9.728;2022-11-24T18:29:34;11.73;;;9.80;;
17386;SDS011;8811;52.398;9.728;2022-11-24T18:32:01;17.13;;;10.93;;
17386;SDS011;8811;52.398;9.728;2022-11-24T18:34:29;13.93;;;10.80;;
17386;SDS011;8811;52.398;9.728;2022-11-24T18:36:57;15.27;;;9.43;;
17386;SDS011;8811;52.398;9.728;2022-11-24T18:39:25;17.63;;;12.18;;
17386;SDS011;8811;52.398;9.728;2022-11-24T18:41:53;14.30;;;10.93;;
17386;SDS011;8811;52.398;9.728;2022-11-24T18:44:21;21.02;;;10.57;;
17386;SDS011;8811;52.398;9.728;2022-11-24T18:46:48;14.80;;;10.55;;
17386;SDS011;8811;52.398;9.728;2022-11-24T18:49:15;15.70;;;11.95;;
17386;SDS011;8811;52.398;9.728;2022-11-24T18:51:43;18.10;;;13.40;;
17386;SDS011;8811;52.398;9.728;2022-11-24T18:54:11;15.32;;;12.23;;
17386;SDS011;8811;52.398;9.728;2022-11-24T18:56:39;19.23;;;13.55;;
17386;SDS011;8811;52.398;9.728;2022-11-24T18:59:06;19.73;;;12.35;;
17386;SDS011;8811;52.398;9.728;2022-11-24T19:01:33;15.88;;;11.88;;
17386;SDS011;8811;52.398;9.728;2022-11-24T19:04:01;15.80;;;13.27;;
17386;SDS011;8811;52.398;9.728;2022-11-24T19:06:30;15.75;;;12.50;;
17386;SDS011;8811;52.398;9.728;2022-11-24T19:09:00;16.25;;;12.05;;
17386;SDS011;8811;52.398;9.728;2022-11-24T19:11:32;18.05;;;12.35;;
17386;SDS011;8811;52.398;9.728;2022-11-24T19:14:00;18.25;;;13.10;;
17386;SDS011;8811;52.398;9.728;2022-11-24T19:16:28;17.10;;;12.52;;
17386;SDS011;8811;52.398;9.728;2022-11-24T19:18:57;21.13;;;12.80;;
17386;SDS011;8811;52.398;9.728;2022-11-24T19:21:26;19.08;;;13.23;;
17386;SDS011;8811;52.398;9.728;2022-11-24T19:23:55;18.52;;;13.52;;
17386;SDS011;8811;52.398;9.728;2022-11-24T19:26:22;21.10;;;14.52;;
17386;SDS011;8811;52.398;9.728;2022-11-24T19:28:51;19.85;;;14.13;;
17386;SDS011;8811;52.398;9.728;2022-11-24T19:31:18;20.75;;;14.20;;
17386;SDS011;8811;52.398;9.728;2022-11-24T19:33:46;19.48;;;13.85;;
17386;SDS011;8811;52.398;9.728;2022-11-24T19:36:14;18.75;;;14.40;;
17386;SDS011;8811;52.398;9.728;2022-11-24T19:38:42;19.92;;;14.20;;
17386;SDS011;8811;52.398;9.728;2022-11-24T19:41:14;21.45;;;13.82;;
17386;SDS011;8811;52.398;9.728;2022-11-24T19:43:43;19.15;;;13.90;;
17386;SDS011;8811;52.398;9.728;2022-11-24T19:46:14;20.75;;;13.50;;
17386;SDS011;8811;52.398;9.728;2022-11-24T19:48:43;20.73;;;13.68;;
17386;SDS011;8811;52.398;9.728;2022-11-24T19:51:13;17.48;;;12.32;;
17386;SDS011;8811;52.398;9.728;2022-11-24T19:53:41;23.70;;;15.25;;
17386;SDS011;8811;52.398;9.728;2022-11-24T19:56:10;16.95;;;11.95;;
17386;SDS011;8811;52.398;9.728;2022-11-24T19:58:38;19.92;;;12.10;;
17386;SDS011;8811;52.398;9.728;2022-11-24T20:01:06;18.90;;;12.10;;
17386;SDS011;8811;52.398;9.728;2022-11-24T20:03:36;15.38;;;12.32;;
17386;SDS011;8811;52.398;9.728;2022-11-24T20:06:05;14.82;;;12.20;;
17386;SDS011;8811;52.398;9.728;2022-11-24T20:08:34;19.73;;;12.38;;
17386;SDS011;8811;52.398;9.728;2022-11-24T20:11:02;19.17;;;12.18;;
17386;SDS011;8811;52.398;9.728;2022-11-24T20:13:32;21.67;;;12.65;;
